createdAt,value
2023-04-23T00:02:23.184Z,6.50
2023-04-23T00:04:54.351Z,6.70
2023-04-23T00:07:22.123Z,7.53
2023-04-23T00:09:52.615Z,8.52
2023-04-23T00:12:21.112Z,7.93
2023-04-23T00:14:51.730Z,7.32
2023-04-23T00:17:20.050Z,8.43
2023-04-23T00:19:47.867Z,6.47
2023-04-23T00:22:17.050Z,7.25
2023-04-23T00:24:44.435Z,6.93
2023-04-23T00:27:11.886Z,7.22
2023-04-23T00:29:39.371Z,8.13
2023-04-23T00:32:07.748Z,7.68
2023-04-23T00:34:35.130Z,6.97
2023-04-23T00:37:06.138Z,7.93
2023-04-23T00:39:38.730Z,6.65
2023-04-23T00:42:12.422Z,7.68
2023-04-23T00:44:41.892Z,8.30
2023-04-23T00:47:10.659Z,7.07
2023-04-23T00:49:39.425Z,9.25
2023-04-23T00:52:08.942Z,8.00
2023-04-23T00:54:36.235Z,9.68
2023-04-23T00:57:08.036Z,7.95
2023-04-23T00:59:36.322Z,6.70
2023-04-23T01:02:04.411Z,6.38
2023-04-23T01:04:35.509Z,7.78
2023-04-23T01:07:03.726Z,8.88
2023-04-23T01:09:32.557Z,6.80
2023-04-23T01:12:02.620Z,8.25
2023-04-23T01:14:32.427Z,5.75
2023-04-23T01:17:03.061Z,7.10
2023-04-23T01:19:30.910Z,6.97
2023-04-23T01:22:01.262Z,6.38
2023-04-23T01:24:31.457Z,6.13
2023-04-23T01:27:03.859Z,7.30
2023-04-23T01:29:32.442Z,7.55
2023-04-23T01:32:00.460Z,8.93
2023-04-23T01:34:28.346Z,6.82
2023-04-23T01:36:58.610Z,6.50
2023-04-23T01:39:28.540Z,8.60
2023-04-23T01:41:58.470Z,6.43
2023-04-23T01:44:25.800Z,9.65
2023-04-23T01:46:53.563Z,7.07
2023-04-23T01:49:20.869Z,6.35
2023-04-23T01:51:50.517Z,5.85
2023-04-23T01:54:20.084Z,8.10
2023-04-23T01:56:47.388Z,7.00
2023-04-23T01:59:14.692Z,6.20
2023-04-23T02:01:48.752Z,5.75
2023-04-23T02:04:17.826Z,8.13
2023-04-23T02:06:50.004Z,7.22
2023-04-23T02:09:17.380Z,8.48
2023-04-23T02:11:44.867Z,7.47
2023-04-23T02:14:12.361Z,7.15
2023-04-23T02:16:39.884Z,6.25
2023-04-23T02:19:09.876Z,6.57
2023-04-23T02:21:37.162Z,6.68
2023-04-23T02:24:07.092Z,7.43
2023-04-23T02:26:34.561Z,7.07
2023-04-23T02:29:01.816Z,6.57
2023-04-23T02:31:29.204Z,6.38
2023-04-23T02:33:56.479Z,6.10
2023-04-23T02:36:23.906Z,6.88
2023-04-23T02:38:51.368Z,6.40
2023-04-23T02:41:18.617Z,7.22
2023-04-23T02:43:45.922Z,7.45
2023-04-23T02:46:13.196Z,5.45
2023-04-23T02:48:42.822Z,5.75
2023-04-23T02:51:12.335Z,6.47
2023-04-23T02:53:39.611Z,5.50
2023-04-23T02:56:09.427Z,6.10
2023-04-23T02:58:36.775Z,5.70
2023-04-23T03:01:05.242Z,5.82
2023-04-23T03:03:33.723Z,5.95
2023-04-23T03:06:02.827Z,5.93
2023-04-23T03:08:30.225Z,4.95
2023-04-23T03:10:57.484Z,6.82
2023-04-23T03:13:26.150Z,5.65
2023-04-23T03:15:56.047Z,5.20
2023-04-23T03:18:23.774Z,6.32
2023-04-23T03:20:51.074Z,6.10
2023-04-23T03:23:18.338Z,6.25
2023-04-23T03:25:48.184Z,6.63
2023-04-23T03:28:15.454Z,6.57
2023-04-23T03:30:45.225Z,5.90
2023-04-23T03:33:12.535Z,5.63
2023-04-23T03:35:42.176Z,6.18
2023-04-23T03:38:11.534Z,7.03
2023-04-23T03:40:38.833Z,5.90
2023-04-23T03:43:06.156Z,6.32
2023-04-23T03:45:33.422Z,7.85
2023-04-23T03:48:00.809Z,7.13
2023-04-23T03:50:28.182Z,7.97
2023-04-23T03:52:55.699Z,63.35
2023-04-23T03:55:25.382Z,40.15
2023-04-23T03:57:52.643Z,22.42
2023-04-23T04:00:19.955Z,13.38
2023-04-23T04:02:47.466Z,8.75
2023-04-23T04:05:18.030Z,7.70
2023-04-23T04:07:45.431Z,6.07
2023-04-23T04:10:12.852Z,6.38
2023-04-23T04:12:41.805Z,6.18
2023-04-23T04:15:09.593Z,8.02
2023-04-23T04:17:39.210Z,6.30
2023-04-23T04:20:13.347Z,6.25
2023-04-23T04:22:46.807Z,5.63
2023-04-23T04:25:16.709Z,6.80
2023-04-23T04:27:46.166Z,6.15
2023-04-23T04:30:13.947Z,6.18
2023-04-23T04:32:45.678Z,8.52
2023-04-23T04:35:14.531Z,6.13
2023-04-23T04:37:43.818Z,7.65
2023-04-23T04:40:14.717Z,6.55
2023-04-23T04:42:42.720Z,6.60
2023-04-23T04:45:10.491Z,6.57
2023-04-23T04:47:40.063Z,6.07
2023-04-23T04:50:08.065Z,7.10
2023-04-23T04:52:36.336Z,6.50
2023-04-23T04:55:06.826Z,10.45
2023-04-23T04:57:34.149Z,6.55
2023-04-23T05:00:19.077Z,6.30
2023-04-23T05:02:47.991Z,7.10
2023-04-23T05:05:15.452Z,8.05
2023-04-23T05:07:44.864Z,6.95
2023-04-23T05:10:13.352Z,6.43
2023-04-23T05:12:43.616Z,5.85
2023-04-23T05:15:15.458Z,6.55
2023-04-23T05:17:45.610Z,5.43
2023-04-23T05:20:13.121Z,5.78
2023-04-23T05:22:43.563Z,7.20
2023-04-23T05:25:12.163Z,7.05
2023-04-23T05:27:39.974Z,6.28
2023-04-23T05:30:09.574Z,6.05
2023-04-23T05:32:37.285Z,5.45
2023-04-23T05:35:06.151Z,6.75
2023-04-23T05:37:33.505Z,8.00
2023-04-23T05:40:02.624Z,6.78
2023-04-23T05:42:32.081Z,5.40
2023-04-23T05:44:59.415Z,5.95
2023-04-23T05:47:26.936Z,7.78
2023-04-23T05:49:54.359Z,6.68
2023-04-23T05:52:24.000Z,7.53
2023-04-23T05:54:52.182Z,5.88
2023-04-23T05:57:23.996Z,5.07
2023-04-23T05:59:51.426Z,6.65
2023-04-23T06:02:24.048Z,6.25
2023-04-23T06:04:52.700Z,5.50
2023-04-23T06:07:20.729Z,6.78
2023-04-23T06:09:48.135Z,9.50
2023-04-23T06:12:17.540Z,5.72
2023-04-23T06:14:47.713Z,6.55
2023-04-23T06:17:17.754Z,7.35
2023-04-23T06:19:47.568Z,6.50
2023-04-23T06:22:17.209Z,7.50
2023-04-23T06:24:51.258Z,9.65
2023-04-23T06:27:18.691Z,7.72
2023-04-23T06:29:46.207Z,7.47
2023-04-23T06:32:18.381Z,7.43
2023-04-23T06:35:00.776Z,7.53
2023-04-23T06:37:30.886Z,7.15
2023-04-23T06:40:01.489Z,7.97
2023-04-23T06:42:28.826Z,6.53
2023-04-23T06:44:57.138Z,7.30
2023-04-23T06:47:24.443Z,8.05
2023-04-23T06:49:52.209Z,7.50
2023-04-23T06:52:21.798Z,6.95
2023-04-23T06:54:49.320Z,7.07
2023-04-23T06:57:16.632Z,9.40
2023-04-23T06:59:43.996Z,6.65
2023-04-23T07:02:11.295Z,6.20
2023-04-23T07:04:38.784Z,7.35
2023-04-23T07:07:06.648Z,6.75
2023-04-23T07:09:34.068Z,7.10
2023-04-23T07:12:03.817Z,6.82
2023-04-23T07:14:31.118Z,5.45
2023-04-23T07:17:00.957Z,6.93
2023-04-23T07:19:28.417Z,6.80
2023-04-23T07:21:55.892Z,6.05
2023-04-23T07:24:23.211Z,5.90
2023-04-23T07:26:50.563Z,5.93
2023-04-23T07:29:20.274Z,7.32
2023-04-23T07:31:50.284Z,6.60
2023-04-23T07:34:20.531Z,5.90
2023-04-23T07:36:47.824Z,5.93
2023-04-23T07:39:17.584Z,5.93
2023-04-23T07:41:47.316Z,4.75
2023-04-23T07:44:17.136Z,5.50
2023-04-23T07:46:46.816Z,5.82
2023-04-23T07:49:14.252Z,5.45
2023-04-23T07:51:41.629Z,4.82
2023-04-23T07:54:09.391Z,6.35
2023-04-23T07:56:39.284Z,6.53
2023-04-23T07:59:07.740Z,6.65
2023-04-23T08:01:35.067Z,4.95
2023-04-23T08:04:04.914Z,5.70
2023-04-23T08:06:35.172Z,5.07
2023-04-23T08:09:06.408Z,4.65
2023-04-23T08:11:34.086Z,5.35
2023-04-23T08:14:04.054Z,6.10
2023-04-23T08:16:34.282Z,5.78
2023-04-23T08:19:06.213Z,7.53
2023-04-23T08:21:34.168Z,5.03
2023-04-23T08:24:03.238Z,4.88
2023-04-23T08:26:31.503Z,4.78
2023-04-23T08:29:01.075Z,4.28
2023-04-23T08:31:28.763Z,4.50
2023-04-23T08:33:58.499Z,5.15
2023-04-23T08:36:26.850Z,5.05
2023-04-23T08:38:54.150Z,5.43
2023-04-23T08:41:27.325Z,6.55
2023-04-23T08:44:13.533Z,4.45
2023-04-23T08:46:43.752Z,4.30
2023-04-23T08:49:19.100Z,4.03
2023-04-23T08:51:52.806Z,4.13
2023-04-23T08:54:31.597Z,4.45
2023-04-23T08:56:59.469Z,5.78
2023-04-23T08:59:29.738Z,4.25
2023-04-23T09:01:57.845Z,4.03
2023-04-23T09:04:26.071Z,5.10
2023-04-23T09:06:55.879Z,5.97
2023-04-23T09:09:31.733Z,6.05
2023-04-23T09:11:59.076Z,3.97
2023-04-23T09:14:26.443Z,5.07
2023-04-23T09:16:54.868Z,4.45
2023-04-23T09:19:22.838Z,5.07
2023-04-23T09:21:52.915Z,6.07
2023-04-23T09:24:26.061Z,5.35
2023-04-23T09:26:54.869Z,6.13
2023-04-23T09:29:25.203Z,5.20
2023-04-23T09:31:55.354Z,6.47
2023-04-23T09:34:24.812Z,6.63
2023-04-23T09:36:53.137Z,6.95
2023-04-23T09:39:23.949Z,6.00
2023-04-23T09:41:54.565Z,4.90
2023-04-23T09:44:22.974Z,7.83
2023-04-23T09:46:52.942Z,6.53
2023-04-23T09:49:20.623Z,5.80
2023-04-23T09:51:49.008Z,7.47
2023-04-23T09:54:26.065Z,5.93
2023-04-23T09:57:00.881Z,9.35
2023-04-23T09:59:46.826Z,7.22
2023-04-23T10:02:18.899Z,10.70
2023-04-23T10:04:56.300Z,6.60
2023-04-23T10:07:30.529Z,5.45
2023-04-23T10:09:57.814Z,5.53
2023-04-23T10:14:57.493Z,5.38
2023-04-23T10:17:24.983Z,5.57
2023-04-23T10:19:52.719Z,4.57
2023-04-23T10:22:22.768Z,4.85
2023-04-23T10:24:58.229Z,5.03
2023-04-23T10:27:44.570Z,5.68
2023-04-23T10:30:18.898Z,9.70
2023-04-23T10:32:48.324Z,9.98
2023-04-23T10:35:18.136Z,16.60
2023-04-23T10:37:48.228Z,13.60
2023-04-23T10:40:24.695Z,12.15
2023-04-23T10:42:52.131Z,9.43
2023-04-23T10:45:25.285Z,10.10
2023-04-23T10:47:56.270Z,8.23
2023-04-23T10:50:31.160Z,9.73
2023-04-23T10:52:58.990Z,9.27
2023-04-23T10:55:28.701Z,7.28
2023-04-23T10:57:57.735Z,6.90
2023-04-23T11:00:42.105Z,7.93
2023-04-23T11:03:32.872Z,6.03
2023-04-23T11:06:04.639Z,5.57
2023-04-23T11:11:02.084Z,5.40
2023-04-23T11:13:30.334Z,5.30
2023-04-23T11:16:25.075Z,6.63
2023-04-23T11:19:03.845Z,4.65
2023-04-23T11:22:01.451Z,4.72
2023-04-23T11:24:37.356Z,3.72
2023-04-23T11:27:09.434Z,4.75
2023-04-23T11:29:41.752Z,4.03
2023-04-23T11:32:13.670Z,4.05
2023-04-23T11:34:43.351Z,5.32
2023-04-23T11:37:15.402Z,3.38
2023-04-23T11:39:44.811Z,6.18
2023-04-23T11:42:16.360Z,4.38
2023-04-23T11:44:47.100Z,3.15
2023-04-23T11:47:16.803Z,3.45
2023-04-23T11:49:45.279Z,4.63
2023-04-23T11:52:15.261Z,3.80
2023-04-23T11:54:42.553Z,3.50
2023-04-23T11:57:10.424Z,3.38
2023-04-23T11:59:38.118Z,2.60
2023-04-23T12:02:05.593Z,3.85
2023-04-23T12:04:38.702Z,3.58
2023-04-23T12:07:19.316Z,3.38
2023-04-23T12:09:55.381Z,6.07
2023-04-23T12:12:22.657Z,3.25
2023-04-23T12:14:50.066Z,5.47
2023-04-23T12:17:17.347Z,3.90
2023-04-23T12:19:46.802Z,2.83
2023-04-23T12:22:14.141Z,3.38
2023-04-23T12:24:51.560Z,2.95
2023-04-23T12:27:21.961Z,5.32
2023-04-23T12:30:01.976Z,4.88
2023-04-23T12:32:30.329Z,3.33
2023-04-23T12:35:00.136Z,3.50
2023-04-23T12:37:30.361Z,3.97
2023-04-23T12:39:59.466Z,3.60
2023-04-23T12:42:27.240Z,2.60
2023-04-23T12:45:08.713Z,3.70
2023-04-23T12:47:35.984Z,4.50
2023-04-23T12:50:05.696Z,3.67
2023-04-23T12:52:33.145Z,3.20
2023-04-23T12:55:01.391Z,4.32
2023-04-23T12:57:29.085Z,3.05
2023-04-23T12:59:56.602Z,3.65
2023-04-23T13:02:27.930Z,4.22
2023-04-23T13:07:28.857Z,2.85
2023-04-23T13:09:57.241Z,2.70
2023-04-23T13:12:26.979Z,3.80
2023-04-23T13:14:56.664Z,4.25
2023-04-23T13:17:26.265Z,2.70
2023-04-23T13:19:57.135Z,3.88
2023-04-23T13:22:29.947Z,4.25
2023-04-23T13:24:59.835Z,3.15
2023-04-23T13:27:29.453Z,4.75
2023-04-23T13:29:57.118Z,5.15
2023-04-23T13:32:31.827Z,2.95
2023-04-23T13:35:04.073Z,3.50
2023-04-23T13:37:34.026Z,3.72
2023-04-23T13:40:01.641Z,3.55
2023-04-23T13:42:28.899Z,5.07
2023-04-23T13:45:04.874Z,2.95
2023-04-23T13:47:34.690Z,2.80
2023-04-23T13:50:05.498Z,2.70
2023-04-23T13:52:33.567Z,3.58
2023-04-23T13:55:03.985Z,4.07
2023-04-23T13:57:31.272Z,3.97
2023-04-23T14:00:00.188Z,3.72
2023-04-23T14:02:29.963Z,2.33
2023-04-23T14:04:58.537Z,3.28
2023-04-23T14:07:28.060Z,3.40
2023-04-23T14:09:57.469Z,2.95
2023-04-23T14:12:26.202Z,3.53
2023-04-23T14:14:58.524Z,2.85
2023-04-23T14:17:30.384Z,7.90
2023-04-23T14:19:57.881Z,5.38
2023-04-23T14:22:25.196Z,3.17
2023-04-23T14:25:02.519Z,3.28
2023-04-23T14:27:34.499Z,2.22
2023-04-23T14:30:05.428Z,3.08
2023-04-23T14:32:37.799Z,3.20
2023-04-23T14:35:05.547Z,3.15
2023-04-23T14:37:35.285Z,5.18
2023-04-23T14:40:02.628Z,2.60
2023-04-23T14:42:32.128Z,2.45
2023-04-23T14:45:01.959Z,2.63
2023-04-23T14:47:29.311Z,3.03
2023-04-23T14:49:57.555Z,2.58
2023-04-23T14:52:24.940Z,2.83
2023-04-23T14:54:54.022Z,3.53
2023-04-23T14:57:21.478Z,2.85
2023-04-23T14:59:48.789Z,2.72
2023-04-23T15:02:16.290Z,3.80
2023-04-23T15:04:43.664Z,2.92
2023-04-23T15:07:13.440Z,3.25
2023-04-23T15:09:41.006Z,3.80
2023-04-23T15:12:37.443Z,2.83
2023-04-23T15:15:05.981Z,3.35
2023-04-23T15:17:35.649Z,3.63
2023-04-23T15:20:06.234Z,3.53
2023-04-23T15:22:33.482Z,3.08
2023-04-23T15:25:03.119Z,5.10
2023-04-23T15:27:32.728Z,2.80
2023-04-23T15:30:00.033Z,3.50
2023-04-23T15:32:27.413Z,4.82
2023-04-23T15:34:57.291Z,3.38
2023-04-23T15:37:27.797Z,3.53
2023-04-23T15:40:00.828Z,2.90
2023-04-23T15:42:28.122Z,3.20
2023-04-23T15:44:58.142Z,2.90
2023-04-23T15:47:25.618Z,3.67
2023-04-23T15:49:52.865Z,4.90
2023-04-23T15:52:20.381Z,4.82
2023-04-23T15:54:47.734Z,3.00
2023-04-23T15:57:15.071Z,4.63
2023-04-23T15:59:43.855Z,4.93
2023-04-23T16:02:11.375Z,2.83
2023-04-23T16:04:38.905Z,4.20
2023-04-23T16:07:09.289Z,3.13
2023-04-23T16:09:36.759Z,5.57
2023-04-23T16:12:07.275Z,2.95
2023-04-23T16:14:36.122Z,4.18
2023-04-23T16:17:03.459Z,4.07
2023-04-23T16:19:31.142Z,3.10
2023-04-23T16:21:58.418Z,3.40
2023-04-23T16:24:25.778Z,3.40
2023-04-23T16:26:53.049Z,3.53
2023-04-23T16:29:23.359Z,3.58
2023-04-23T16:31:57.955Z,5.88
2023-04-23T16:34:25.791Z,4.18
2023-04-23T16:36:53.085Z,3.97
2023-04-23T16:39:20.769Z,3.83
2023-04-23T16:41:50.376Z,3.70
2023-04-23T16:44:17.727Z,3.15
2023-04-23T16:46:45.071Z,3.25
2023-04-23T16:49:14.952Z,5.93
2023-04-23T16:51:44.825Z,3.72
2023-04-23T16:54:14.206Z,4.00
2023-04-23T16:56:42.357Z,4.60
2023-04-23T16:59:12.192Z,4.05
2023-04-23T17:01:39.519Z,3.20
2023-04-23T17:04:09.593Z,4.25
2023-04-23T17:06:39.614Z,3.97
2023-04-23T17:09:08.825Z,4.80
2023-04-23T17:11:38.319Z,4.32
2023-04-23T17:14:05.659Z,3.50
2023-04-23T17:16:32.959Z,4.03
2023-04-23T17:19:00.329Z,4.65
2023-04-23T17:21:28.549Z,3.15
2023-04-23T17:23:55.816Z,3.50
2023-04-23T17:26:23.090Z,3.00
2023-04-23T17:28:52.753Z,5.00
2023-04-23T17:31:22.393Z,5.45
2023-04-23T17:33:50.438Z,3.13
2023-04-23T17:36:17.775Z,3.67
2023-04-23T17:38:45.958Z,2.90
2023-04-23T17:41:16.878Z,2.67
2023-04-23T17:43:51.498Z,2.25
2023-04-23T17:46:18.830Z,1.77
2023-04-23T17:48:50.609Z,1.77
2023-04-23T17:51:21.548Z,2.45
2023-04-23T17:53:50.460Z,2.75
2023-04-23T17:56:17.849Z,3.15
2023-04-23T17:58:45.258Z,4.22
2023-04-23T18:01:12.976Z,2.33
2023-04-23T18:03:40.430Z,2.08
2023-04-23T18:06:09.233Z,2.95
2023-04-23T18:08:38.383Z,2.33
2023-04-23T18:11:07.922Z,3.17
2023-04-23T18:13:38.581Z,1.88
2023-04-23T18:16:06.014Z,3.00
2023-04-23T18:18:33.349Z,1.80
2023-04-23T18:21:01.954Z,2.40
2023-04-23T18:23:29.547Z,3.53
2023-04-23T18:25:56.991Z,2.13
2023-04-23T18:28:26.883Z,3.10
2023-04-23T18:30:56.596Z,2.95
2023-04-23T18:33:47.846Z,1.75
2023-04-23T18:36:29.604Z,2.88
2023-04-23T18:39:01.912Z,3.10
2023-04-23T18:41:30.096Z,4.30
2023-04-23T18:43:59.766Z,3.47
2023-04-23T18:46:28.951Z,1.98
2023-04-23T18:49:04.473Z,3.58
2023-04-23T18:51:37.738Z,2.65
2023-04-23T18:54:09.969Z,1.85
2023-04-23T18:56:37.266Z,1.95
2023-04-23T18:59:04.569Z,2.20
2023-04-23T19:01:31.856Z,1.98
2023-04-23T19:03:59.331Z,3.80
2023-04-23T19:06:29.161Z,2.47
2023-04-23T19:08:56.367Z,2.15
2023-04-23T19:11:23.680Z,3.58
2023-04-23T19:13:50.917Z,4.30
2023-04-23T19:16:18.422Z,2.72
2023-04-23T19:18:48.547Z,2.65
2023-04-23T19:21:16.105Z,2.55
2023-04-23T19:23:45.724Z,5.03
2023-04-23T19:26:15.577Z,6.18
2023-04-23T19:28:42.830Z,8.55
2023-04-23T19:31:10.742Z,15.70
2023-04-23T19:33:38.081Z,6.05
2023-04-23T19:36:05.541Z,4.65
2023-04-23T19:38:32.882Z,3.97
2023-04-23T19:41:00.428Z,6.65
2023-04-23T19:43:27.680Z,7.45
2023-04-23T19:45:57.293Z,6.10
2023-04-23T19:48:26.877Z,5.20
2023-04-23T19:50:55.318Z,3.22
2023-04-23T19:53:24.701Z,1.70
2023-04-23T19:55:54.123Z,2.40
2023-04-23T19:58:21.433Z,1.88
2023-04-23T20:00:48.907Z,1.80
2023-04-23T20:03:16.530Z,2.15
2023-04-23T20:05:46.041Z,1.75
2023-04-23T20:08:25.913Z,1.70
2023-04-23T20:10:54.050Z,2.10
2023-04-23T20:13:24.048Z,2.05
2023-04-23T20:15:53.706Z,1.85
2023-04-23T20:18:21.788Z,2.08
2023-04-23T20:20:49.859Z,2.05
2023-04-23T20:23:17.146Z,3.10
2023-04-23T20:25:44.427Z,3.22
2023-04-23T20:28:12.071Z,3.63
2023-04-23T20:30:39.361Z,4.35
2023-04-23T20:33:10.456Z,3.03
2023-04-23T20:35:39.648Z,2.70
2023-04-23T20:38:07.840Z,2.67
2023-04-23T20:40:35.510Z,3.08
2023-04-23T20:43:04.857Z,2.85
2023-04-23T20:45:33.120Z,5.65
2023-04-23T20:48:02.380Z,2.08
2023-04-23T20:50:34.316Z,2.45
2023-04-23T20:53:01.600Z,2.10
2023-04-23T20:55:28.991Z,3.25
2023-04-23T20:57:56.315Z,3.22
2023-04-23T21:00:25.818Z,2.63
2023-04-23T21:02:53.814Z,3.72
2023-04-23T21:05:21.738Z,2.92
2023-04-23T21:07:49.047Z,3.45
2023-04-23T21:10:16.319Z,4.80
2023-04-23T21:12:44.087Z,4.80
2023-04-23T21:15:16.808Z,4.05
2023-04-23T21:17:47.730Z,4.57
2023-04-23T21:20:15.531Z,2.15
2023-04-23T21:22:42.927Z,2.25
2023-04-23T21:25:10.453Z,2.72
2023-04-23T21:27:38.102Z,1.70
2023-04-23T21:30:12.288Z,2.35
2023-04-23T21:32:39.624Z,5.15
2023-04-23T21:35:07.576Z,2.85
2023-04-23T21:37:38.111Z,1.60
2023-04-23T21:40:06.244Z,2.80
2023-04-23T21:42:33.671Z,1.55
2023-04-23T21:45:02.802Z,3.20
2023-04-23T21:47:33.462Z,1.85
2023-04-23T21:50:01.505Z,2.92
2023-04-23T21:52:31.292Z,1.77
2023-04-23T21:55:11.462Z,2.70
2023-04-23T21:57:41.872Z,1.58
2023-04-23T22:00:14.108Z,1.75
2023-04-23T22:02:42.987Z,1.30
2023-04-23T22:05:11.080Z,1.33
2023-04-23T22:07:41.392Z,0.95
2023-04-23T22:10:16.036Z,0.90
2023-04-23T22:12:46.599Z,1.00
2023-04-23T22:15:18.584Z,0.90
2023-04-23T22:17:50.312Z,1.00
2023-04-23T22:20:24.027Z,1.20
2023-04-23T22:22:51.330Z,0.77
2023-04-23T22:25:19.627Z,0.75
2023-04-23T22:27:47.221Z,1.20
2023-04-23T22:30:15.466Z,1.48
2023-04-23T22:32:42.871Z,1.48
2023-04-23T22:35:10.127Z,0.70
2023-04-23T22:37:37.951Z,1.13
2023-04-23T22:40:07.719Z,1.75
2023-04-23T22:42:35.641Z,2.45
2023-04-23T22:45:03.306Z,1.33
2023-04-23T22:47:30.735Z,1.35
2023-04-23T22:50:01.644Z,1.52
2023-04-23T22:52:29.025Z,1.35
2023-04-23T22:54:58.850Z,1.02
2023-04-23T22:57:26.490Z,3.00
2023-04-23T22:59:53.807Z,1.30
2023-04-23T23:02:21.102Z,0.90
2023-04-23T23:04:49.124Z,0.93
2023-04-23T23:07:16.478Z,0.77
2023-04-23T23:09:43.967Z,1.50
2023-04-23T23:12:11.512Z,0.90
2023-04-23T23:14:38.815Z,1.83
2023-04-23T23:17:06.478Z,1.00
2023-04-23T23:19:34.128Z,1.30
2023-04-23T23:22:04.010Z,2.17
2023-04-23T23:24:34.705Z,1.52
2023-04-23T23:27:02.967Z,1.10
2023-04-23T23:29:30.240Z,0.98
2023-04-23T23:31:58.116Z,0.80
2023-04-23T23:34:25.646Z,1.17
2023-04-23T23:36:56.372Z,2.63
2023-04-23T23:39:23.817Z,2.58
2023-04-23T23:41:51.131Z,1.50
2023-04-23T23:44:20.765Z,2.08
2023-04-23T23:46:52.029Z,2.08
2023-04-23T23:49:20.373Z,1.50
2023-04-23T23:51:47.945Z,2.78
2023-04-23T23:54:17.431Z,1.55
2023-04-23T23:56:44.687Z,3.47
2023-04-23T23:59:12.072Z,1.63
